sensor_id;sensor_type;location;lat;lon;timestamp;P1;durP1;ratioP1;P2;durP2;ratioP2
74941;SDS011;63506;49.346;8.798;2022-10-20T00:02:21;11.07;;;8.70;;
74941;SDS011;63506;49.346;8.798;2022-10-20T00:04:47;15.90;;;10.93;;
74941;SDS011;63506;49.346;8.798;2022-10-20T00:07:15;11.20;;;8.50;;
74941;SDS011;63506;49.346;8.798;2022-10-20T00:09:41;14.85;;;8.63;;
74941;SDS011;63506;49.346;8.798;2022-10-20T00:12:09;17.83;;;10.55;;
74941;SDS011;63506;49.346;8.798;2022-10-20T00:14:35;13.55;;;10.43;;
74941;SDS011;63506;49.346;8.798;2022-10-20T00:17:05;13.18;;;10.35;;
74941;SDS011;63506;49.346;8.798;2022-10-20T00:19:33;20.35;;;11.30;;
74941;SDS011;63506;49.346;8.798;2022-10-20T00:21:59;13.65;;;10.77;;
74941;SDS011;63506;49.346;8.798;2022-10-20T00:24:27;14.73;;;10.38;;
74941;SDS011;63506;49.346;8.798;2022-10-20T00:26:53;11.63;;;7.95;;
74941;SDS011;63506;49.346;8.798;2022-10-20T00:29:21;13.93;;;9.98;;
74941;SDS011;63506;49.346;8.798;2022-10-20T00:31:47;14.27;;;9.45;;
74941;SDS011;63506;49.346;8.798;2022-10-20T00:34:17;13.95;;;9.38;;
74941;SDS011;63506;49.346;8.798;2022-10-20T00:36:45;13.48;;;9.30;;
74941;SDS011;63506;49.346;8.798;2022-10-20T00:39:11;12.20;;;8.25;;
74941;SDS011;63506;49.346;8.798;2022-10-20T00:41:39;12.70;;;8.95;;
74941;SDS011;63506;49.346;8.798;2022-10-20T00:46:55;14.35;;;10.63;;
74941;SDS011;63506;49.346;8.798;2022-10-20T00:49:24;12.70;;;10.70;;
74941;SDS011;63506;49.346;8.798;2022-10-20T00:51:50;16.52;;;8.70;;
74941;SDS011;63506;49.346;8.798;2022-10-20T00:54:21;14.45;;;8.88;;
74941;SDS011;63506;49.346;8.798;2022-10-20T00:56:52;12.50;;;9.50;;
74941;SDS011;63506;49.346;8.798;2022-10-20T00:59:20;18.15;;;10.25;;
74941;SDS011;63506;49.346;8.798;2022-10-20T01:01:47;20.08;;;9.48;;
74941;SDS011;63506;49.346;8.798;2022-10-20T01:04:14;12.98;;;10.27;;
74941;SDS011;63506;49.346;8.798;2022-10-20T01:06:42;15.73;;;9.63;;
74941;SDS011;63506;49.346;8.798;2022-10-20T01:09:10;11.52;;;9.00;;
74941;SDS011;63506;49.346;8.798;2022-10-20T01:27:38;14.25;;;10.98;;
74941;SDS011;63506;49.346;8.798;2022-10-20T01:37:49;13.30;;;9.30;;
74941;SDS011;63506;49.346;8.798;2022-10-20T01:42:48;12.13;;;8.82;;
74941;SDS011;63506;49.346;8.798;2022-10-20T01:45:18;13.65;;;9.82;;
74941;SDS011;63506;49.346;8.798;2022-10-20T01:47:45;17.73;;;9.23;;
74941;SDS011;63506;49.346;8.798;2022-10-20T01:50:14;13.38;;;8.95;;
74941;SDS011;63506;49.346;8.798;2022-10-20T01:52:46;13.35;;;10.40;;
74941;SDS011;63506;49.346;8.798;2022-10-20T01:55:15;14.10;;;10.23;;
74941;SDS011;63506;49.346;8.798;2022-10-20T02:00:31;18.35;;;9.23;;
74941;SDS011;63506;49.346;8.798;2022-10-20T02:08:31;13.45;;;8.93;;
74941;SDS011;63506;49.346;8.798;2022-10-20T02:11:03;14.57;;;9.35;;
74941;SDS011;63506;49.346;8.798;2022-10-20T02:13:33;20.02;;;10.60;;
74941;SDS011;63506;49.346;8.798;2022-10-20T02:16:07;11.00;;;8.98;;
74941;SDS011;63506;49.346;8.798;2022-10-20T02:18:38;10.73;;;7.75;;
74941;SDS011;63506;49.346;8.798;2022-10-20T02:21:10;18.77;;;10.85;;
74941;SDS011;63506;49.346;8.798;2022-10-20T02:23:37;12.82;;;9.23;;
74941;SDS011;63506;49.346;8.798;2022-10-20T02:26:08;11.80;;;8.95;;
74941;SDS011;63506;49.346;8.798;2022-10-20T02:28:41;12.98;;;8.05;;
74941;SDS011;63506;49.346;8.798;2022-10-20T02:31:07;11.88;;;8.70;;
74941;SDS011;63506;49.346;8.798;2022-10-20T02:33:40;10.00;;;8.95;;
74941;SDS011;63506;49.346;8.798;2022-10-20T02:36:15;13.15;;;8.80;;
74941;SDS011;63506;49.346;8.798;2022-10-20T02:38:42;11.68;;;8.27;;
74941;SDS011;63506;49.346;8.798;2022-10-20T02:41:12;10.68;;;8.07;;
74941;SDS011;63506;49.346;8.798;2022-10-20T02:43:40;8.50;;;7.60;;
74941;SDS011;63506;49.346;8.798;2022-10-20T02:46:06;14.50;;;8.48;;
74941;SDS011;63506;49.346;8.798;2022-10-20T02:48:32;11.98;;;8.55;;
74941;SDS011;63506;49.346;8.798;2022-10-20T02:50:58;11.57;;;8.50;;
74941;SDS011;63506;49.346;8.798;2022-10-20T02:53:26;10.85;;;9.15;;
74941;SDS011;63506;49.346;8.798;2022-10-20T02:55:57;14.25;;;8.10;;
74941;SDS011;63506;49.346;8.798;2022-10-20T02:58:28;14.93;;;10.07;;
74941;SDS011;63506;49.346;8.798;2022-10-20T03:00:54;12.82;;;8.48;;
74941;SDS011;63506;49.346;8.798;2022-10-20T03:03:24;12.00;;;9.18;;
74941;SDS011;63506;49.346;8.798;2022-10-20T03:05:50;23.30;;;11.68;;
74941;SDS011;63506;49.346;8.798;2022-10-20T03:08:18;10.73;;;7.60;;
74941;SDS011;63506;49.346;8.798;2022-10-20T03:10:44;35.17;;;9.45;;
74941;SDS011;63506;49.346;8.798;2022-10-20T03:13:12;12.50;;;8.60;;
74941;SDS011;63506;49.346;8.798;2022-10-20T03:15:43;11.55;;;7.30;;
74941;SDS011;63506;49.346;8.798;2022-10-20T03:18:11;20.00;;;8.93;;
74941;SDS011;63506;49.346;8.798;2022-10-20T03:20:42;12.40;;;8.85;;
74941;SDS011;63506;49.346;8.798;2022-10-20T03:23:12;16.10;;;10.32;;
74941;SDS011;63506;49.346;8.798;2022-10-20T03:25:38;13.30;;;9.77;;
74941;SDS011;63506;49.346;8.798;2022-10-20T03:28:07;11.18;;;8.52;;
74941;SDS011;63506;49.346;8.798;2022-10-20T03:30:35;11.25;;;8.15;;
74941;SDS011;63506;49.346;8.798;2022-10-20T03:33:03;13.13;;;8.45;;
74941;SDS011;63506;49.346;8.798;2022-10-20T03:35:34;12.35;;;9.82;;
74941;SDS011;63506;49.346;8.798;2022-10-20T03:38:00;12.20;;;8.63;;
74941;SDS011;63506;49.346;8.798;2022-10-20T03:40:25;11.82;;;7.40;;
74941;SDS011;63506;49.346;8.798;2022-10-20T03:42:51;10.80;;;8.40;;
74941;SDS011;63506;49.346;8.798;2022-10-20T03:45:19;9.68;;;8.05;;
74941;SDS011;63506;49.346;8.798;2022-10-20T03:47:45;12.70;;;8.82;;
74941;SDS011;63506;49.346;8.798;2022-10-20T03:50:11;14.45;;;9.88;;
74941;SDS011;63506;49.346;8.798;2022-10-20T03:52:41;11.45;;;6.90;;
74941;SDS011;63506;49.346;8.798;2022-10-20T03:55:10;13.23;;;7.97;;
74941;SDS011;63506;49.346;8.798;2022-10-20T03:57:35;9.95;;;7.95;;
74941;SDS011;63506;49.346;8.798;2022-10-20T04:00:06;13.35;;;9.70;;
74941;SDS011;63506;49.346;8.798;2022-10-20T04:02:38;14.60;;;10.05;;
74941;SDS011;63506;49.346;8.798;2022-10-20T04:05:05;11.73;;;9.90;;
74941;SDS011;63506;49.346;8.798;2022-10-20T04:07:31;14.32;;;8.00;;
74941;SDS011;63506;49.346;8.798;2022-10-20T04:09:57;13.23;;;9.27;;
74941;SDS011;63506;49.346;8.798;2022-10-20T04:12:29;10.93;;;8.70;;
74941;SDS011;63506;49.346;8.798;2022-10-20T04:15:00;12.20;;;8.93;;
74941;SDS011;63506;49.346;8.798;2022-10-20T04:17:30;12.13;;;9.32;;
74941;SDS011;63506;49.346;8.798;2022-10-20T04:19:56;15.65;;;9.95;;
74941;SDS011;63506;49.346;8.798;2022-10-20T04:22:24;11.85;;;8.48;;
74941;SDS011;63506;49.346;8.798;2022-10-20T04:24:52;13.52;;;9.77;;
74941;SDS011;63506;49.346;8.798;2022-10-20T04:27:18;12.48;;;9.02;;
74941;SDS011;63506;49.346;8.798;2022-10-20T04:29:45;14.00;;;9.85;;
74941;SDS011;63506;49.346;8.798;2022-10-20T04:32:11;15.32;;;9.70;;
74941;SDS011;63506;49.346;8.798;2022-10-20T04:34:36;12.57;;;9.98;;
74941;SDS011;63506;49.346;8.798;2022-10-20T04:37:07;11.25;;;9.43;;
74941;SDS011;63506;49.346;8.798;2022-10-20T04:39:33;32.30;;;11.90;;
74941;SDS011;63506;49.346;8.798;2022-10-20T04:42:01;13.07;;;9.85;;
74941;SDS011;63506;49.346;8.798;2022-10-20T04:44:27;17.33;;;9.27;;
74941;SDS011;63506;49.346;8.798;2022-10-20T04:46:55;13.02;;;10.85;;
74941;SDS011;63506;49.346;8.798;2022-10-20T04:49:24;16.35;;;10.25;;
74941;SDS011;63506;49.346;8.798;2022-10-20T04:51:49;13.25;;;10.20;;
74941;SDS011;63506;49.346;8.798;2022-10-20T04:54:18;16.60;;;11.02;;
74941;SDS011;63506;49.346;8.798;2022-10-20T04:56:46;11.98;;;10.43;;
74941;SDS011;63506;49.346;8.798;2022-10-20T04:59:12;15.75;;;11.23;;
74941;SDS011;63506;49.346;8.798;2022-10-20T05:01:40;14.93;;;9.98;;
74941;SDS011;63506;49.346;8.798;2022-10-20T05:04:10;14.13;;;11.43;;
74941;SDS011;63506;49.346;8.798;2022-10-20T05:06:45;17.75;;;13.00;;
74941;SDS011;63506;49.346;8.798;2022-10-20T05:09:11;19.35;;;11.55;;
74941;SDS011;63506;49.346;8.798;2022-10-20T05:11:37;15.05;;;10.18;;
74941;SDS011;63506;49.346;8.798;2022-10-20T05:14:03;21.00;;;11.52;;
74941;SDS011;63506;49.346;8.798;2022-10-20T05:16:29;16.45;;;11.48;;
74941;SDS011;63506;49.346;8.798;2022-10-20T05:18:58;16.35;;;10.75;;
74941;SDS011;63506;49.346;8.798;2022-10-20T05:21:25;17.48;;;13.18;;
74941;SDS011;63506;49.346;8.798;2022-10-20T05:23:58;14.52;;;12.70;;
74941;SDS011;63506;49.346;8.798;2022-10-20T05:26:24;14.90;;;11.02;;
74941;SDS011;63506;49.346;8.798;2022-10-20T05:28:53;27.60;;;11.88;;
74941;SDS011;63506;49.346;8.798;2022-10-20T05:31:19;21.08;;;14.18;;
74941;SDS011;63506;49.346;8.798;2022-10-20T05:33:48;26.52;;;11.98;;
74941;SDS011;63506;49.346;8.798;2022-10-20T05:36:15;19.80;;;13.98;;
74941;SDS011;63506;49.346;8.798;2022-10-20T05:38:46;24.38;;;15.98;;
74941;SDS011;63506;49.346;8.798;2022-10-20T05:41:15;22.88;;;14.27;;
74941;SDS011;63506;49.346;8.798;2022-10-20T05:43:41;18.17;;;13.07;;
74941;SDS011;63506;49.346;8.798;2022-10-20T05:46:07;20.58;;;14.82;;
74941;SDS011;63506;49.346;8.798;2022-10-20T05:48:34;21.27;;;14.35;;
74941;SDS011;63506;49.346;8.798;2022-10-20T05:51:08;22.33;;;14.93;;
74941;SDS011;63506;49.346;8.798;2022-10-20T05:53:36;25.08;;;16.17;;
74941;SDS011;63506;49.346;8.798;2022-10-20T05:56:05;20.63;;;15.73;;
74941;SDS011;63506;49.346;8.798;2022-10-20T05:58:31;19.83;;;14.80;;
74941;SDS011;63506;49.346;8.798;2022-10-20T06:01:06;17.73;;;14.63;;
74941;SDS011;63506;49.346;8.798;2022-10-20T06:03:31;24.33;;;18.13;;
74941;SDS011;63506;49.346;8.798;2022-10-20T06:05:58;19.70;;;14.30;;
74941;SDS011;63506;49.346;8.798;2022-10-20T06:08:24;20.45;;;16.48;;
74941;SDS011;63506;49.346;8.798;2022-10-20T06:10:52;22.38;;;17.70;;
74941;SDS011;63506;49.346;8.798;2022-10-20T06:13:22;18.02;;;15.05;;
74941;SDS011;63506;49.346;8.798;2022-10-20T06:15:48;24.55;;;15.32;;
74941;SDS011;63506;49.346;8.798;2022-10-20T06:18:17;25.73;;;16.15;;
74941;SDS011;63506;49.346;8.798;2022-10-20T06:20:45;20.98;;;15.13;;
74941;SDS011;63506;49.346;8.798;2022-10-20T06:23:10;24.60;;;16.17;;
74941;SDS011;63506;49.346;8.798;2022-10-20T06:25:36;21.38;;;15.57;;
74941;SDS011;63506;49.346;8.798;2022-10-20T06:28:02;18.63;;;15.55;;
74941;SDS011;63506;49.346;8.798;2022-10-20T06:30:28;24.13;;;16.35;;
74941;SDS011;63506;49.346;8.798;2022-10-20T06:32:55;27.40;;;18.85;;
74941;SDS011;63506;49.346;8.798;2022-10-20T06:35:23;23.35;;;17.27;;
74941;SDS011;63506;49.346;8.798;2022-10-20T06:37:49;22.35;;;15.68;;
74941;SDS011;63506;49.346;8.798;2022-10-20T06:40:17;18.05;;;14.30;;
74941;SDS011;63506;49.346;8.798;2022-10-20T06:42:42;20.95;;;16.63;;
74941;SDS011;63506;49.346;8.798;2022-10-20T06:45:11;16.90;;;12.13;;
74941;SDS011;63506;49.346;8.798;2022-10-20T06:47:36;25.80;;;18.35;;
74941;SDS011;63506;49.346;8.798;2022-10-20T06:50:05;27.30;;;17.58;;
74941;SDS011;63506;49.346;8.798;2022-10-20T06:52:33;25.58;;;16.80;;
74941;SDS011;63506;49.346;8.798;2022-10-20T06:55:01;23.77;;;16.90;;
74941;SDS011;63506;49.346;8.798;2022-10-20T06:57:30;23.42;;;17.33;;
74941;SDS011;63506;49.346;8.798;2022-10-20T06:59:58;20.42;;;15.68;;
74941;SDS011;63506;49.346;8.798;2022-10-20T07:02:24;24.17;;;16.17;;
74941;SDS011;63506;49.346;8.798;2022-10-20T07:04:50;19.67;;;14.10;;
74941;SDS011;63506;49.346;8.798;2022-10-20T07:07:18;22.33;;;15.38;;
74941;SDS011;63506;49.346;8.798;2022-10-20T07:09:46;21.92;;;15.63;;
74941;SDS011;63506;49.346;8.798;2022-10-20T07:12:16;18.15;;;15.13;;
74941;SDS011;63506;49.346;8.798;2022-10-20T07:14:44;20.27;;;12.77;;
74941;SDS011;63506;49.346;8.798;2022-10-20T07:17:10;22.80;;;14.80;;
74941;SDS011;63506;49.346;8.798;2022-10-20T07:19:38;20.30;;;12.07;;
74941;SDS011;63506;49.346;8.798;2022-10-20T07:22:04;27.45;;;17.58;;
74941;SDS011;63506;49.346;8.798;2022-10-20T07:24:30;23.85;;;15.82;;
74941;SDS011;63506;49.346;8.798;2022-10-20T07:26:58;19.48;;;12.98;;
74941;SDS011;63506;49.346;8.798;2022-10-20T07:29:24;18.77;;;13.45;;
74941;SDS011;63506;49.346;8.798;2022-10-20T07:31:52;17.30;;;12.70;;
74941;SDS011;63506;49.346;8.798;2022-10-20T07:34:18;15.10;;;11.60;;
74941;SDS011;63506;49.346;8.798;2022-10-20T07:36:47;22.55;;;16.23;;
74941;SDS011;63506;49.346;8.798;2022-10-20T07:39:14;16.88;;;13.52;;
74941;SDS011;63506;49.346;8.798;2022-10-20T07:41:43;19.50;;;13.27;;
74941;SDS011;63506;49.346;8.798;2022-10-20T07:44:15;19.85;;;14.50;;
74941;SDS011;63506;49.346;8.798;2022-10-20T07:46:41;17.98;;;13.55;;
74941;SDS011;63506;49.346;8.798;2022-10-20T07:49:09;19.35;;;14.73;;
74941;SDS011;63506;49.346;8.798;2022-10-20T07:51:37;21.50;;;14.15;;
74941;SDS011;63506;49.346;8.798;2022-10-20T07:54:06;18.88;;;13.55;;
74941;SDS011;63506;49.346;8.798;2022-10-20T07:56:37;20.15;;;13.73;;
74941;SDS011;63506;49.346;8.798;2022-10-20T07:59:06;37.65;;;12.48;;
74941;SDS011;63506;49.346;8.798;2022-10-20T08:01:38;16.52;;;13.30;;
74941;SDS011;63506;49.346;8.798;2022-10-20T08:04:07;14.77;;;11.40;;
74941;SDS011;63506;49.346;8.798;2022-10-20T08:06:35;26.67;;;11.25;;
74941;SDS011;63506;49.346;8.798;2022-10-20T08:09:06;16.30;;;12.75;;
74941;SDS011;63506;49.346;8.798;2022-10-20T08:11:34;23.77;;;12.60;;
74941;SDS011;63506;49.346;8.798;2022-10-20T08:14:00;21.13;;;15.52;;
74941;SDS011;63506;49.346;8.798;2022-10-20T08:16:28;14.98;;;13.02;;
74941;SDS011;63506;49.346;8.798;2022-10-20T08:18:54;15.50;;;11.70;;
74941;SDS011;63506;49.346;8.798;2022-10-20T08:21:23;19.63;;;13.93;;
74941;SDS011;63506;49.346;8.798;2022-10-20T08:23:51;17.00;;;13.18;;
74941;SDS011;63506;49.346;8.798;2022-10-20T08:26:19;17.83;;;13.57;;
74941;SDS011;63506;49.346;8.798;2022-10-20T08:28:45;17.23;;;12.20;;
74941;SDS011;63506;49.346;8.798;2022-10-20T08:31:14;16.55;;;12.10;;
74941;SDS011;63506;49.346;8.798;2022-10-20T08:33:44;17.90;;;11.63;;
74941;SDS011;63506;49.346;8.798;2022-10-20T08:36:13;15.93;;;10.32;;
74941;SDS011;63506;49.346;8.798;2022-10-20T08:38:46;11.50;;;9.77;;
74941;SDS011;63506;49.346;8.798;2022-10-20T08:41:18;11.18;;;9.90;;
74941;SDS011;63506;49.346;8.798;2022-10-20T08:43:47;12.40;;;10.00;;
74941;SDS011;63506;49.346;8.798;2022-10-20T08:46:17;15.32;;;9.40;;
74941;SDS011;63506;49.346;8.798;2022-10-20T08:48:43;16.67;;;10.20;;
74941;SDS011;63506;49.346;8.798;2022-10-20T08:51:31;10.07;;;8.98;;
74941;SDS011;63506;49.346;8.798;2022-10-20T08:53:59;20.48;;;12.20;;
74941;SDS011;63506;49.346;8.798;2022-10-20T08:56:32;13.40;;;9.35;;
74941;SDS011;63506;49.346;8.798;2022-10-20T08:58:58;17.98;;;11.45;;
74941;SDS011;63506;49.346;8.798;2022-10-20T09:01:29;11.82;;;9.15;;
74941;SDS011;63506;49.346;8.798;2022-10-20T09:03:58;14.85;;;9.82;;
74941;SDS011;63506;49.346;8.798;2022-10-20T09:06:29;11.57;;;9.43;;
74941;SDS011;63506;49.346;8.798;2022-10-20T09:08:55;12.73;;;7.82;;
74941;SDS011;63506;49.346;8.798;2022-10-20T09:11:23;13.02;;;9.05;;
74941;SDS011;63506;49.346;8.798;2022-10-20T09:13:49;10.98;;;9.18;;
74941;SDS011;63506;49.346;8.798;2022-10-20T09:16:29;12.80;;;8.18;;
74941;SDS011;63506;49.346;8.798;2022-10-20T09:19:03;13.57;;;9.40;;
74941;SDS011;63506;49.346;8.798;2022-10-20T09:21:30;12.60;;;9.68;;
74941;SDS011;63506;49.346;8.798;2022-10-20T09:24:03;11.80;;;9.13;;
74941;SDS011;63506;49.346;8.798;2022-10-20T09:26:42;11.95;;;9.32;;
74941;SDS011;63506;49.346;8.798;2022-10-20T09:29:12;19.33;;;10.00;;
74941;SDS011;63506;49.346;8.798;2022-10-20T09:34:25;10.30;;;8.30;;
74941;SDS011;63506;49.346;8.798;2022-10-20T09:36:52;17.25;;;10.45;;
74941;SDS011;63506;49.346;8.798;2022-10-20T09:39:21;11.88;;;8.57;;
74941;SDS011;63506;49.346;8.798;2022-10-20T09:41:47;13.20;;;9.85;;
74941;SDS011;63506;49.346;8.798;2022-10-20T09:44:19;10.88;;;8.30;;
74941;SDS011;63506;49.346;8.798;2022-10-20T09:46:55;11.07;;;8.75;;
74941;SDS011;63506;49.346;8.798;2022-10-20T09:51:46;12.45;;;9.40;;
74941;SDS011;63506;49.346;8.798;2022-10-20T09:54:15;10.32;;;7.80;;
74941;SDS011;63506;49.346;8.798;2022-10-20T09:56:42;12.23;;;8.32;;
74941;SDS011;63506;49.346;8.798;2022-10-20T09:59:52;10.73;;;8.68;;
74941;SDS011;63506;49.346;8.798;2022-10-20T10:01:59;10.02;;;8.90;;
74941;SDS011;63506;49.346;8.798;2022-10-20T10:07:01;10.55;;;8.75;;
74941;SDS011;63506;49.346;8.798;2022-10-20T10:11:59;11.07;;;9.07;;
74941;SDS011;63506;49.346;8.798;2022-10-20T10:14:26;11.70;;;9.50;;
74941;SDS011;63506;49.346;8.798;2022-10-20T10:16:52;15.10;;;8.98;;
74941;SDS011;63506;49.346;8.798;2022-10-20T10:19:23;10.98;;;9.23;;
74941;SDS011;63506;49.346;8.798;2022-10-20T10:21:56;22.08;;;10.65;;
74941;SDS011;63506;49.346;8.798;2022-10-20T10:26:57;10.25;;;8.63;;
74941;SDS011;63506;49.346;8.798;2022-10-20T10:29:35;12.90;;;9.10;;
74941;SDS011;63506;49.346;8.798;2022-10-20T10:37:09;14.45;;;8.98;;
74941;SDS011;63506;49.346;8.798;2022-10-20T10:39:36;10.20;;;8.43;;
74941;SDS011;63506;49.346;8.798;2022-10-20T10:47:08;16.95;;;8.45;;
74941;SDS011;63506;49.346;8.798;2022-10-20T10:52:18;17.65;;;9.75;;
74941;SDS011;63506;49.346;8.798;2022-10-20T10:55:10;13.50;;;9.98;;
74941;SDS011;63506;49.346;8.798;2022-10-20T10:57:44;15.95;;;9.63;;
74941;SDS011;63506;49.346;8.798;2022-10-20T11:00:59;13.90;;;8.65;;
74941;SDS011;63506;49.346;8.798;2022-10-20T11:05:45;12.77;;;9.15;;
74941;SDS011;63506;49.346;8.798;2022-10-20T11:11:07;10.95;;;7.63;;
74941;SDS011;63506;49.346;8.798;2022-10-20T11:13:42;12.38;;;8.80;;
74941;SDS011;63506;49.346;8.798;2022-10-20T11:21:45;16.00;;;10.15;;
74941;SDS011;63506;49.346;8.798;2022-10-20T11:26:43;14.43;;;9.07;;
74941;SDS011;63506;49.346;8.798;2022-10-20T11:29:18;10.75;;;8.57;;
74941;SDS011;63506;49.346;8.798;2022-10-20T11:34:21;11.40;;;8.07;;
74941;SDS011;63506;49.346;8.798;2022-10-20T11:36:49;10.57;;;9.23;;
74941;SDS011;63506;49.346;8.798;2022-10-20T11:41:51;11.50;;;9.45;;
74941;SDS011;63506;49.346;8.798;2022-10-20T11:44:26;10.85;;;7.78;;
74941;SDS011;63506;49.346;8.798;2022-10-20T11:49:49;11.27;;;10.18;;
74941;SDS011;63506;49.346;8.798;2022-10-20T12:15:21;12.32;;;8.85;;
74941;SDS011;63506;49.346;8.798;2022-10-20T12:17:47;10.68;;;8.82;;
74941;SDS011;63506;49.346;8.798;2022-10-20T12:22:52;8.52;;;7.18;;
74941;SDS011;63506;49.346;8.798;2022-10-20T12:33:13;10.38;;;7.55;;
74941;SDS011;63506;49.346;8.798;2022-10-20T12:36:40;14.23;;;9.33;;
74941;SDS011;63506;49.346;8.798;2022-10-20T12:38:37;11.90;;;9.35;;
74941;SDS011;63506;49.346;8.798;2022-10-20T12:41:03;35.10;;;8.13;;
74941;SDS011;63506;49.346;8.798;2022-10-20T12:43:31;12.88;;;7.78;;
74941;SDS011;63506;49.346;8.798;2022-10-20T12:46:04;10.77;;;8.82;;
74941;SDS011;63506;49.346;8.798;2022-10-20T12:48:32;13.85;;;9.07;;
74941;SDS011;63506;49.346;8.798;2022-10-20T12:51:06;11.32;;;8.05;;
74941;SDS011;63506;49.346;8.798;2022-10-20T12:53:36;12.32;;;8.20;;
74941;SDS011;63506;49.346;8.798;2022-10-20T12:56:06;12.00;;;8.38;;
74941;SDS011;63506;49.346;8.798;2022-10-20T12:58:33;11.10;;;7.80;;
74941;SDS011;63506;49.346;8.798;2022-10-20T13:01:04;12.40;;;9.48;;
74941;SDS011;63506;49.346;8.798;2022-10-20T13:03:39;14.63;;;9.77;;
74941;SDS011;63506;49.346;8.798;2022-10-20T13:19:34;11.48;;;8.60;;
74941;SDS011;63506;49.346;8.798;2022-10-20T13:24:53;12.50;;;8.02;;
74941;SDS011;63506;49.346;8.798;2022-10-20T13:27:20;10.68;;;8.50;;
74941;SDS011;63506;49.346;8.798;2022-10-20T13:29:49;12.90;;;9.32;;
74941;SDS011;63506;49.346;8.798;2022-10-20T13:35:01;11.05;;;8.10;;
74941;SDS011;63506;49.346;8.798;2022-10-20T13:38:16;9.00;;;7.28;;
74941;SDS011;63506;49.346;8.798;2022-10-20T13:40:32;10.63;;;8.77;;
74941;SDS011;63506;49.346;8.798;2022-10-20T13:48:32;12.55;;;8.77;;
74941;SDS011;63506;49.346;8.798;2022-10-20T13:51:17;10.45;;;9.35;;
74941;SDS011;63506;49.346;8.798;2022-10-20T13:53:44;10.45;;;7.57;;
74941;SDS011;63506;49.346;8.798;2022-10-20T13:58:40;13.70;;;8.23;;
74941;SDS011;63506;49.346;8.798;2022-10-20T14:01:16;10.50;;;7.97;;
74941;SDS011;63506;49.346;8.798;2022-10-20T14:03:50;9.27;;;7.28;;
74941;SDS011;63506;49.346;8.798;2022-10-20T14:08:53;14.55;;;8.70;;
74941;SDS011;63506;49.346;8.798;2022-10-20T14:11:27;11.88;;;7.18;;
74941;SDS011;63506;49.346;8.798;2022-10-20T14:13:56;10.13;;;6.75;;
74941;SDS011;63506;49.346;8.798;2022-10-20T14:16:26;8.77;;;6.70;;
74941;SDS011;63506;49.346;8.798;2022-10-20T14:19:14;30.20;;;7.82;;
74941;SDS011;63506;49.346;8.798;2022-10-20T14:24:06;9.60;;;7.68;;
74941;SDS011;63506;49.346;8.798;2022-10-20T14:26:42;12.73;;;7.70;;
74941;SDS011;63506;49.346;8.798;2022-10-20T14:29:10;7.97;;;7.18;;
74941;SDS011;63506;49.346;8.798;2022-10-20T14:31:36;9.85;;;7.65;;
74941;SDS011;63506;49.346;8.798;2022-10-20T14:34:05;10.32;;;7.60;;
74941;SDS011;63506;49.346;8.798;2022-10-20T14:36:42;13.95;;;8.32;;
74941;SDS011;63506;49.346;8.798;2022-10-20T14:39:18;26.02;;;7.57;;
74941;SDS011;63506;49.346;8.798;2022-10-20T14:41:47;11.02;;;7.47;;
74941;SDS011;63506;49.346;8.798;2022-10-20T14:44:17;9.68;;;8.20;;
74941;SDS011;63506;49.346;8.798;2022-10-20T14:46:44;8.55;;;7.25;;
74941;SDS011;63506;49.346;8.798;2022-10-20T14:49:15;15.20;;;9.52;;
74941;SDS011;63506;49.346;8.798;2022-10-20T14:51:45;11.57;;;7.97;;
74941;SDS011;63506;49.346;8.798;2022-10-20T14:56:53;11.10;;;7.80;;
74941;SDS011;63506;49.346;8.798;2022-10-20T14:59:26;9.40;;;8.40;;
74941;SDS011;63506;49.346;8.798;2022-10-20T15:02:04;13.57;;;7.50;;
74941;SDS011;63506;49.346;8.798;2022-10-20T15:04:42;11.90;;;8.27;;
74941;SDS011;63506;49.346;8.798;2022-10-20T15:07:15;12.02;;;7.70;;
74941;SDS011;63506;49.346;8.798;2022-10-20T15:15:35;11.10;;;6.40;;
74941;SDS011;63506;49.346;8.798;2022-10-20T15:23:18;12.27;;;7.43;;
74941;SDS011;63506;49.346;8.798;2022-10-20T15:30:58;10.27;;;7.18;;
74941;SDS011;63506;49.346;8.798;2022-10-20T15:33:25;10.70;;;6.75;;
74941;SDS011;63506;49.346;8.798;2022-10-20T15:35:53;9.32;;;8.10;;
74941;SDS011;63506;49.346;8.798;2022-10-20T15:38:19;12.73;;;9.15;;
74941;SDS011;63506;49.346;8.798;2022-10-20T15:40:45;8.73;;;7.88;;
74941;SDS011;63506;49.346;8.798;2022-10-20T15:43:15;8.32;;;7.22;;
74941;SDS011;63506;49.346;8.798;2022-10-20T15:45:42;11.15;;;7.25;;
74941;SDS011;63506;49.346;8.798;2022-10-20T15:48:13;11.00;;;7.18;;
74941;SDS011;63506;49.346;8.798;2022-10-20T15:50:39;8.68;;;6.88;;
74941;SDS011;63506;49.346;8.798;2022-10-20T15:53:05;9.35;;;6.80;;
74941;SDS011;63506;49.346;8.798;2022-10-20T15:55:32;9.05;;;7.82;;
74941;SDS011;63506;49.346;8.798;2022-10-20T15:58:04;8.52;;;7.00;;
74941;SDS011;63506;49.346;8.798;2022-10-20T16:00:33;11.35;;;7.07;;
74941;SDS011;63506;49.346;8.798;2022-10-20T16:03:01;7.95;;;6.85;;
74941;SDS011;63506;49.346;8.798;2022-10-20T16:05:27;8.52;;;6.35;;
74941;SDS011;63506;49.346;8.798;2022-10-20T16:07:55;11.02;;;8.40;;
74941;SDS011;63506;49.346;8.798;2022-10-20T16:10:22;9.73;;;7.50;;
74941;SDS011;63506;49.346;8.798;2022-10-20T16:12:48;8.05;;;6.93;;
74941;SDS011;63506;49.346;8.798;2022-10-20T16:15:17;9.70;;;7.40;;
74941;SDS011;63506;49.346;8.798;2022-10-20T16:17:43;10.90;;;7.07;;
74941;SDS011;63506;49.346;8.798;2022-10-20T16:20:12;10.52;;;6.60;;
74941;SDS011;63506;49.346;8.798;2022-10-20T16:22:40;16.02;;;7.07;;
74941;SDS011;63506;49.346;8.798;2022-10-20T16:25:06;11.73;;;8.38;;
74941;SDS011;63506;49.346;8.798;2022-10-20T16:27:32;13.02;;;7.38;;
74941;SDS011;63506;49.346;8.798;2022-10-20T16:29:58;10.07;;;7.70;;
74941;SDS011;63506;49.346;8.798;2022-10-20T16:32:25;10.23;;;8.15;;
74941;SDS011;63506;49.346;8.798;2022-10-20T16:34:53;15.73;;;13.85;;
74941;SDS011;63506;49.346;8.798;2022-10-20T16:37:25;12.73;;;11.35;;
74941;SDS011;63506;49.346;8.798;2022-10-20T16:39:51;11.70;;;8.32;;
74941;SDS011;63506;49.346;8.798;2022-10-20T16:42:17;12.40;;;9.27;;
74941;SDS011;63506;49.346;8.798;2022-10-20T16:44:43;9.40;;;8.20;;
74941;SDS011;63506;49.346;8.798;2022-10-20T16:47:09;10.77;;;7.85;;
74941;SDS011;63506;49.346;8.798;2022-10-20T16:49:36;16.05;;;7.82;;
74941;SDS011;63506;49.346;8.798;2022-10-20T16:52:02;13.38;;;8.50;;
74941;SDS011;63506;49.346;8.798;2022-10-20T16:54:32;14.90;;;9.20;;
74941;SDS011;63506;49.346;8.798;2022-10-20T16:56:58;14.27;;;9.68;;
74941;SDS011;63506;49.346;8.798;2022-10-20T16:59:24;15.20;;;8.82;;
74941;SDS011;63506;49.346;8.798;2022-10-20T17:01:52;13.75;;;9.10;;
74941;SDS011;63506;49.346;8.798;2022-10-20T17:04:20;10.68;;;8.77;;
74941;SDS011;63506;49.346;8.798;2022-10-20T17:06:48;20.20;;;9.70;;
74941;SDS011;63506;49.346;8.798;2022-10-20T17:09:21;11.77;;;8.38;;
74941;SDS011;63506;49.346;8.798;2022-10-20T17:11:47;11.02;;;8.98;;
74941;SDS011;63506;49.346;8.798;2022-10-20T17:14:15;15.70;;;9.65;;
74941;SDS011;63506;49.346;8.798;2022-10-20T17:16:44;13.70;;;9.43;;
74941;SDS011;63506;49.346;8.798;2022-10-20T17:19:11;13.27;;;10.15;;
74941;SDS011;63506;49.346;8.798;2022-10-20T17:21:40;13.82;;;9.68;;
74941;SDS011;63506;49.346;8.798;2022-10-20T17:24:09;14.98;;;8.90;;
74941;SDS011;63506;49.346;8.798;2022-10-20T17:26:37;14.77;;;9.48;;
74941;SDS011;63506;49.346;8.798;2022-10-20T17:29:08;14.02;;;9.25;;
74941;SDS011;63506;49.346;8.798;2022-10-20T17:31:35;10.85;;;7.78;;